Time;durP1;ratioP1;P1;durP2;ratioP2;P2;SDS_P1;SDS_P2;PMS_P1;PMS_P2;Temp;Humidity;BMP_temperature;BMP_pressure;BME280_temperature;BME280_humidity;BME280_pressure;Samples;Min_cycle;Max_cycle;Signal;HPM_P1;HPM_P2
2023/12/30 00:00:51;;;;;;;2.60;1.30;;;;;;;;;;5014101;28;21008;-68
2023/12/30 00:03:17;;;;;;;2.57;1.27;;;;;;;;;;5015509;28;20740;-69
2023/12/30 00:05:43;;;;;;;1.93;1.03;;;;;;;;;;5016118;28;20451;-69
2023/12/30 00:08:09;;;;;;;2.23;1.07;;;;;;;;;;5015304;28;21079;-69
2023/12/30 00:10:35;;;;;;;2.73;1.40;;;;;;;;;;5015535;28;20654;-70
2023/12/30 00:13:03;;;;;;;2.20;1.50;;;;;;;;;;5014971;28;20881;-70
2023/12/30 00:15:29;;;;;;;2.23;1.40;;;;;;;;;;5015016;28;20465;-69
2023/12/30 00:17:55;;;;;;;2.83;1.60;;;;;;;;;;5014837;28;20797;-69
2023/12/30 00:20:22;;;;;;;2.60;1.60;;;;;;;;;;5014602;28;20743;-68
2023/12/30 00:22:48;;;;;;;2.50;1.60;;;;;;;;;;5015329;28;20412;-69
2023/12/30 00:25:14;;;;;;;3.17;2.27;;;;;;;;;;5015290;28;20416;-69
2023/12/30 00:27:40;;;;;;;2.53;1.60;;;;;;;;;;5015040;28;20468;-69
2023/12/30 00:30:06;;;;;;;3.10;1.90;;;;;;;;;;5014988;28;20491;-69
2023/12/30 00:32:32;;;;;;;3.07;1.87;;;;;;;;;;5015547;28;20956;-69
2023/12/30 00:34:58;;;;;;;3.00;2.10;;;;;;;;;;5015442;28;20476;-69
2023/12/30 00:37:24;;;;;;;3.50;1.67;;;;;;;;;;5014413;28;20881;-69
2023/12/30 00:39:51;;;;;;;5.40;2.37;;;;;;;;;;5014245;28;20408;-69
2023/12/30 00:42:17;;;;;;;3.63;2.23;;;;;;;;;;5015444;28;20413;-70
2023/12/30 00:44:43;;;;;;;3.60;2.80;;;;;;;;;;5014151;28;20473;-69
2023/12/30 00:47:08;;;;;;;4.70;2.33;;;;;;;;;;5013982;28;20959;-69
2023/12/30 00:49:35;;;;;;;3.73;2.13;;;;;;;;;;5014112;28;20506;-69
2023/12/30 00:52:01;;;;;;;3.47;2.60;;;;;;;;;;5014551;28;20477;-69
2023/12/30 00:54:27;;;;;;;2.60;1.40;;;;;;;;;;5014189;28;20454;-70
2023/12/30 00:56:53;;;;;;;3.20;1.73;;;;;;;;;;5013951;28;20511;-69
2023/12/30 00:59:19;;;;;;;3.90;1.70;;;;;;;;;;5013818;28;20439;-70
2023/12/30 01:01:45;;;;;;;2.27;1.57;;;;;;;;;;5014043;28;20413;-69
2023/12/30 01:04:12;;;;;;;4.27;2.20;;;;;;;;;;5014632;28;20419;-69
2023/12/30 01:06:38;;;;;;;2.80;1.97;;;;;;;;;;5013727;28;20416;-69
2023/12/30 01:09:04;;;;;;;5.63;1.73;;;;;;;;;;5013411;28;20481;-69
2023/12/30 01:11:30;;;;;;;2.80;1.47;;;;;;;;;;5014262;28;20447;-69
2023/12/30 01:13:56;;;;;;;3.30;1.83;;;;;;;;;;5014054;28;20451;-69
2023/12/30 01:16:22;;;;;;;2.67;1.43;;;;;;;;;;5013636;28;20423;-69
2023/12/30 01:18:48;;;;;;;2.17;1.10;;;;;;;;;;5014334;28;20521;-69
2023/12/30 01:21:14;;;;;;;5.50;1.37;;;;;;;;;;5013972;28;20416;-69
2023/12/30 01:23:40;;;;;;;3.50;1.40;;;;;;;;;;5013785;28;20420;-70
2023/12/30 01:26:06;;;;;;;2.23;1.33;;;;;;;;;;5013658;28;20839;-69
2023/12/30 01:28:33;;;;;;;2.47;1.20;;;;;;;;;;5013370;28;20440;-70
2023/12/30 01:30:59;;;;;;;2.30;1.10;;;;;;;;;;5012780;28;20427;-69
2023/12/30 01:33:25;;;;;;;2.10;1.10;;;;;;;;;;5013075;28;20421;-70
2023/12/30 01:35:51;;;;;;;2.10;0.83;;;;;;;;;;5013215;28;20463;-70
2023/12/30 01:38:17;;;;;;;2.23;1.03;;;;;;;;;;5013928;28;20510;-69
2023/12/30 01:40:43;;;;;;;2.10;1.07;;;;;;;;;;5012951;28;20416;-70
2023/12/30 01:43:28;;;;;;;1.90;1.20;;;;;;;;;;5013324;28;20836;-69
2023/12/30 01:45:56;;;;;;;2.20;1.10;;;;;;;;;;5012909;28;20404;-69
2023/12/30 01:48:22;;;;;;;4.80;1.53;;;;;;;;;;5012692;28;20503;-69
2023/12/30 01:50:49;;;;;;;2.70;1.00;;;;;;;;;;5012689;28;20406;-70
2023/12/30 01:53:16;;;;;;;7.23;1.43;;;;;;;;;;5012616;28;20413;-70
2023/12/30 01:55:42;;;;;;;2.20;1.07;;;;;;;;;;5012491;28;20456;-69
2023/12/30 01:58:08;;;;;;;2.17;0.93;;;;;;;;;;5012647;28;20437;-69
2023/12/30 02:00:35;;;;;;;2.20;1.10;;;;;;;;;;5012672;28;20413;-69
2023/12/30 02:03:01;;;;;;;8.73;2.20;;;;;;;;;;5013172;28;20413;-70
2023/12/30 02:05:28;;;;;;;1.80;1.10;;;;;;;;;;5013016;28;20505;-70
2023/12/30 02:07:54;;;;;;;3.50;1.40;;;;;;;;;;5012149;28;20551;-70
2023/12/30 02:10:20;;;;;;;2.03;1.13;;;;;;;;;;5012486;28;20913;-70
2023/12/30 02:12:46;;;;;;;2.53;1.20;;;;;;;;;;5012786;28;20417;-70
2023/12/30 02:15:17;;;;;;;1.90;1.20;;;;;;;;;;5012070;28;20464;-70
2023/12/30 02:17:43;;;;;;;2.10;1.23;;;;;;;;;;5012522;28;20445;-71
2023/12/30 02:20:09;;;;;;;2.10;1.40;;;;;;;;;;5012370;28;20420;-69
2023/12/30 02:22:35;;;;;;;2.30;1.20;;;;;;;;;;5012599;28;20780;-70
2023/12/30 02:25:02;;;;;;;2.23;1.40;;;;;;;;;;5012451;28;20424;-70
2023/12/30 02:27:28;;;;;;;2.00;1.07;;;;;;;;;;5012292;28;20494;-70
2023/12/30 02:29:54;;;;;;;2.00;1.20;;;;;;;;;;5012564;28;20455;-69
2023/12/30 02:32:20;;;;;;;2.07;1.37;;;;;;;;;;5012123;28;20421;-70
2023/12/30 02:34:46;;;;;;;2.13;1.43;;;;;;;;;;5012205;28;20492;-70
2023/12/30 02:37:12;;;;;;;3.40;1.27;;;;;;;;;;5012258;28;20418;-70
2023/12/30 02:39:38;;;;;;;2.77;1.37;;;;;;;;;;5011581;28;20437;-70
2023/12/30 02:42:04;;;;;;;2.77;1.70;;;;;;;;;;5011870;28;20496;-70
2023/12/30 02:44:29;;;;;;;2.00;1.40;;;;;;;;;;5011822;28;20498;-70
2023/12/30 02:46:55;;;;;;;2.30;1.40;;;;;;;;;;5012069;28;20846;-71
2023/12/30 02:49:21;;;;;;;2.30;1.40;;;;;;;;;;5011645;28;20937;-70
2023/12/30 02:51:47;;;;;;;2.07;1.10;;;;;;;;;;5011921;28;20865;-69
2023/12/30 02:54:13;;;;;;;2.03;1.03;;;;;;;;;;5015701;28;20952;-70
2023/12/30 02:56:39;;;;;;;2.20;1.00;;;;;;;;;;5015697;28;20925;-70
2023/12/30 02:59:05;;;;;;;2.13;1.13;;;;;;;;;;5015849;28;20465;-70
2023/12/30 03:01:32;;;;;;;4.00;1.10;;;;;;;;;;5015881;28;20422;-70
2023/12/30 03:03:59;;;;;;;2.47;1.30;;;;;;;;;;5015688;28;20436;-70
2023/12/30 03:06:25;;;;;;;1.90;0.97;;;;;;;;;;5015542;28;20501;-69
2023/12/30 03:08:51;;;;;;;3.03;1.10;;;;;;;;;;5015364;28;20464;-70
2023/12/30 03:11:18;;;;;;;2.50;1.50;;;;;;;;;;5015380;28;20415;-70
2023/12/30 03:13:44;;;;;;;2.07;1.27;;;;;;;;;;5016058;28;21037;-70
2023/12/30 03:16:16;;;;;;;2.63;1.40;;;;;;;;;;5015684;28;20468;-69
2023/12/30 03:18:43;;;;;;;1.70;1.00;;;;;;;;;;5014207;28;21013;-70
2023/12/30 03:21:09;;;;;;;2.87;1.30;;;;;;;;;;5015631;28;20492;-70
2023/12/30 03:23:36;;;;;;;2.13;1.30;;;;;;;;;;5016292;28;20418;-70
2023/12/30 03:26:02;;;;;;;3.03;1.10;;;;;;;;;;5015406;28;21089;-70
2023/12/30 03:28:28;;;;;;;3.60;1.00;;;;;;;;;;5015260;28;20447;-70
2023/12/30 03:30:54;;;;;;;2.20;0.90;;;;;;;;;;5015044;28;20468;-70
2023/12/30 03:33:20;;;;;;;4.40;2.00;;;;;;;;;;5015347;28;20425;-70
2023/12/30 03:35:46;;;;;;;7.90;1.70;;;;;;;;;;5015890;28;20497;-70
2023/12/30 03:38:12;;;;;;;2.87;0.90;;;;;;;;;;5014861;28;20439;-70
2023/12/30 03:40:38;;;;;;;2.00;0.90;;;;;;;;;;5014998;28;20417;-69
2023/12/30 03:43:04;;;;;;;3.60;1.30;;;;;;;;;;5015478;28;20418;-70
2023/12/30 03:45:30;;;;;;;2.00;0.90;;;;;;;;;;5014976;28;20434;-70
2023/12/30 03:47:56;;;;;;;2.10;0.90;;;;;;;;;;5014887;28;20437;-69
2023/12/30 03:50:22;;;;;;;2.10;0.93;;;;;;;;;;5015051;28;20419;-70
2023/12/30 03:52:48;;;;;;;2.90;1.00;;;;;;;;;;5015126;28;20427;-70
2023/12/30 03:55:14;;;;;;;3.20;1.20;;;;;;;;;;5015285;28;20461;-70
2023/12/30 03:57:40;;;;;;;3.03;1.37;;;;;;;;;;5014941;28;20465;-69
2023/12/30 04:00:06;;;;;;;1.83;0.93;;;;;;;;;;5013350;28;20426;-69
2023/12/30 04:02:32;;;;;;;1.70;0.73;;;;;;;;;;5014972;28;20494;-69
2023/12/30 04:04:58;;;;;;;2.20;1.10;;;;;;;;;;5015347;28;20477;-69
2023/12/30 04:07:24;;;;;;;4.20;0.90;;;;;;;;;;5014570;28;20430;-69
2023/12/30 04:09:51;;;;;;;1.70;0.70;;;;;;;;;;5014873;28;20472;-68
2023/12/30 04:12:18;;;;;;;2.40;0.93;;;;;;;;;;5014466;28;20414;-69
2023/12/30 04:14:44;;;;;;;5.33;0.80;;;;;;;;;;5014407;28;20501;-69
2023/12/30 04:17:10;;;;;;;1.80;0.90;;;;;;;;;;5015296;28;20413;-68
2023/12/30 04:19:36;;;;;;;1.70;0.90;;;;;;;;;;5015134;28;20477;-69
2023/12/30 04:22:02;;;;;;;3.80;0.90;;;;;;;;;;5015327;28;20417;-69
2023/12/30 04:24:28;;;;;;;2.57;0.90;;;;;;;;;;5015148;28;20421;-69
2023/12/30 04:26:54;;;;;;;3.37;1.07;;;;;;;;;;5014765;28;20900;-69
2023/12/30 04:29:20;;;;;;;2.23;0.87;;;;;;;;;;5014156;28;20934;-69
2023/12/30 04:31:46;;;;;;;3.13;0.97;;;;;;;;;;5012992;28;20480;-69
2023/12/30 04:34:12;;;;;;;1.80;0.80;;;;;;;;;;5014382;28;20918;-68
2023/12/30 04:36:37;;;;;;;4.30;1.00;;;;;;;;;;5013843;28;20843;-69
2023/12/30 04:39:03;;;;;;;1.87;0.90;;;;;;;;;;5013705;28;20447;-69
2023/12/30 04:41:30;;;;;;;2.80;0.67;;;;;;;;;;5013912;28;20415;-70
2023/12/30 04:43:56;;;;;;;1.93;0.80;;;;;;;;;;5014882;28;20846;-69
2023/12/30 04:46:22;;;;;;;3.87;1.03;;;;;;;;;;5014280;28;20495;-68
2023/12/30 04:48:52;;;;;;;2.13;0.80;;;;;;;;;;5012443;28;20492;-69
2023/12/30 04:51:18;;;;;;;2.20;1.00;;;;;;;;;;5013630;28;20476;-69
2023/12/30 04:53:44;;;;;;;1.90;0.90;;;;;;;;;;5013688;28;20411;-69
2023/12/30 04:56:17;;;;;;;2.00;0.87;;;;;;;;;;5013694;28;20561;-69
2023/12/30 04:58:43;;;;;;;2.43;0.70;;;;;;;;;;5014085;28;20430;-68
2023/12/30 05:01:09;;;;;;;2.33;0.70;;;;;;;;;;5013813;28;20749;-69
2023/12/30 05:03:36;;;;;;;2.30;0.90;;;;;;;;;;5013821;28;20422;-69
2023/12/30 05:06:02;;;;;;;2.53;1.00;;;;;;;;;;5013437;28;20814;-70
2023/12/30 05:08:28;;;;;;;2.57;0.93;;;;;;;;;;5013464;28;20462;-70
2023/12/30 05:10:54;;;;;;;2.63;1.67;;;;;;;;;;5014127;28;20422;-69
2023/12/30 05:13:20;;;;;;;2.07;0.77;;;;;;;;;;5013406;28;20411;-69
2023/12/30 05:15:48;;;;;;;2.00;0.80;;;;;;;;;;5012223;28;20830;-69
2023/12/30 05:18:14;;;;;;;2.07;1.13;;;;;;;;;;5012993;28;21019;-69
2023/12/30 05:20:41;;;;;;;4.13;1.20;;;;;;;;;;5013352;28;20526;-70
2023/12/30 05:23:07;;;;;;;2.77;0.90;;;;;;;;;;5013317;28;20411;-70
2023/12/30 05:25:33;;;;;;;1.90;0.80;;;;;;;;;;5011994;28;20421;-69
2023/12/30 05:27:59;;;;;;;3.03;0.90;;;;;;;;;;5012915;28;20430;-69
2023/12/30 05:30:25;;;;;;;2.17;1.03;;;;;;;;;;5013301;28;20883;-69
2023/12/30 05:32:51;;;;;;;2.90;0.97;;;;;;;;;;5013843;28;20454;-70
2023/12/30 05:35:17;;;;;;;2.87;1.23;;;;;;;;;;5013444;28;20466;-70
2023/12/30 05:37:43;;;;;;;1.60;0.70;;;8.80;41.30;;;;;;5012866;28;20438;-69
2023/12/30 05:40:09;;;;;;;1.67;0.87;;;8.70;42.20;;;;;;5012969;28;20518;-70
2023/12/30 05:42:35;;;;;;;2.37;1.00;;;;;;;;;;5013512;28;20694;-69
2023/12/30 05:45:01;;;;;;;2.57;0.70;;;;;;;;;;5013264;28;20426;-69
2023/12/30 05:47:27;;;;;;;2.10;0.90;;;;;;;;;;5013100;28;20501;-69
2023/12/30 05:49:53;;;;;;;2.53;0.90;;;;;;;;;;5012872;28;20469;-69
2023/12/30 05:52:19;;;;;;;2.17;0.87;;;;;;;;;;5012545;28;20448;-69
2023/12/30 05:54:45;;;;;;;2.00;0.93;;;;;;;;;;5012929;28;20461;-69
2023/12/30 05:57:11;;;;;;;6.93;1.77;;;;;;;;;;5013072;28;20413;-69
2023/12/30 05:59:38;;;;;;;4.13;1.37;;;;;;;;;;5013039;28;20469;-69
2023/12/30 06:02:05;;;;;;;2.67;1.20;;;;;;;;;;5012349;28;20440;-69
2023/12/30 06:04:31;;;;;;;5.17;1.33;;;;;;;;;;5012478;28;20507;-69
2023/12/30 06:06:57;;;;;;;2.20;0.90;;;;;;;;;;5012421;28;20565;-69
2023/12/30 06:09:23;;;;;;;2.70;1.13;;;;;;;;;;5012361;28;20462;-70
2023/12/30 06:11:49;;;;;;;2.80;1.40;;;;;;;;;;5012798;28;20913;-69
2023/12/30 06:14:15;;;;;;;2.83;0.90;;;;;;;;;;5012142;28;20494;-70
2023/12/30 06:16:41;;;;;;;2.20;1.00;;;;;;;;;;5012515;28;20870;-69
2023/12/30 06:19:07;;;;;;;1.77;0.90;;;;;;;;;;5012919;28;20452;-69
2023/12/30 06:21:33;;;;;;;2.70;1.23;;;;;;;;;;5012509;28;20413;-69
2023/12/30 06:23:59;;;;;;;2.07;1.00;;;;;;;;;;5012484;28;20414;-69
2023/12/30 06:26:25;;;;;;;3.80;1.43;;;;;;;;;;5012372;28;20453;-69
2023/12/30 06:28:51;;;;;;;2.60;1.23;;;;;;;;;;5012819;28;20461;-68
2023/12/30 06:31:17;;;;;;;3.83;0.70;;;;;;;;;;5022563;28;20801;-70
2023/12/30 06:33:43;;;;;;;2.33;0.87;;;;;;;;;;5025926;28;20448;-70
2023/12/30 06:36:11;;;;;;;2.63;0.90;;;;;;;;;;5020556;28;20468;-69
2023/12/30 06:38:37;;;;;;;2.13;0.93;;;;;;;;;;5017866;28;20433;-70
2023/12/30 06:41:06;;;;;;;2.37;1.17;;;;;;;;;;5014971;28;21007;-70
2023/12/30 06:43:32;;;;;;;2.97;1.20;;;;;;;;;;5011837;28;20429;-69
2023/12/30 06:45:57;;;;;;;2.37;0.93;;;;;;;;;;5013487;28;20512;-69
2023/12/30 06:48:23;;;;;;;1.93;1.20;;;;;;;;;;5014021;28;20849;-69
2023/12/30 06:50:49;;;;;;;2.30;1.00;;;;;;;;;;5012765;28;20421;-69
2023/12/30 06:53:15;;;;;;;2.87;1.67;;;;;;;;;;5012259;28;20881;-69
2023/12/30 06:55:41;;;;;;;2.03;1.00;;;;;;;;;;5012837;28;20797;-70
2023/12/30 06:58:08;;;;;;;2.40;1.47;;;;;;;;;;5013520;28;20517;-70
2023/12/30 07:00:34;;;;;;;3.00;1.00;;;;;;;;;;5013521;28;20414;-69
2023/12/30 07:03:00;;;;;;;2.03;1.20;;;;;;;;;;5011496;28;20479;-69
2023/12/30 07:05:25;;;;;;;1.80;1.00;;;;;;;;;;5011123;28;20426;-70
2023/12/30 07:07:51;;;;;;;2.00;0.80;;;;;;;;;;5036504;23;20469;-70
2023/12/30 07:10:17;;;;;;;1.60;0.60;;;;;;;;;;5023941;28;20418;-69
2023/12/30 07:12:43;;;;;;;2.10;0.80;;;;;;;;;;5024917;28;20417;-69
2023/12/30 07:15:09;;;;;;;3.40;0.90;;;;;;;;;;5024172;28;20517;-70
2023/12/30 07:17:35;;;;;;;2.27;1.23;;;;;;;;;;5024407;28;20497;-70
2023/12/30 07:20:02;;;;;;;3.23;0.90;;;;;;;;;;5024060;28;20433;-69
2023/12/30 07:22:28;;;;;;;2.53;1.07;;;;;;;;;;5025202;28;20410;-70
2023/12/30 07:24:54;;;;;;;2.33;1.03;;;;;;;;;;5024269;28;20473;-70
2023/12/30 07:27:20;;;;;;;1.80;0.80;;;;;;;;;;5024619;28;20414;-70
2023/12/30 07:29:46;;;;;;;2.50;1.40;;;;;;;;;;5024330;28;20465;-69
2023/12/30 07:32:11;;;;;;;10.70;1.30;;;;;;;;;;5023904;28;20773;-70
2023/12/30 07:34:37;;;;;;;1.90;0.97;;;;;;;;;;5023727;28;20461;-70
2023/12/30 07:37:04;;;;;;;2.00;0.87;;;;;;;;;;5023366;28;21043;-70
2023/12/30 07:39:32;;;;;;;2.00;0.90;;;;;;;;;;5025878;28;20458;-70
2023/12/30 07:41:58;;;;;;;2.27;1.00;;;;;;;;;;5026655;28;20399;-70
2023/12/30 07:44:24;;;;;;;2.17;0.90;;;;;;;;;;5027137;28;20418;-69
2023/12/30 07:46:50;;;;;;;1.90;1.10;;;;;;;;;;5026093;28;20449;-69
2023/12/30 07:49:18;;;;;;;2.60;0.77;;;;;;;;;;5027874;28;20461;-70
2023/12/30 07:51:45;;;;;;;1.90;0.87;;;;;;;;;;5028089;28;20422;-69
2023/12/30 07:54:12;;;;;;;3.47;0.97;;;;;;;;;;5028685;28;20415;-70
2023/12/30 07:56:38;;;;;;;1.70;0.67;;;;;;;;;;5029585;28;20498;-69
2023/12/30 07:59:04;;;;;;;1.57;0.80;;;;;;;;;;5028657;28;20427;-70
2023/12/30 08:01:30;;;;;;;2.10;0.60;;;;;;;;;;5029033;28;20415;-68
2023/12/30 08:03:56;;;;;;;1.90;0.80;;;;;;;;;;5028603;28;20411;-68
2023/12/30 08:06:22;;;;;;;2.53;1.43;;;;;;;;;;5028151;28;20414;-70
2023/12/30 08:08:49;;;;;;;2.17;0.80;;;;;;;;;;5028967;28;20675;-69
2023/12/30 08:11:15;;;;;;;1.90;0.90;;;;;;;;;;5011881;28;20438;-69
2023/12/30 08:13:41;;;;;;;1.93;0.83;;;;;;;;;;5028569;28;20785;-68
2023/12/30 08:16:08;;;;;;;2.10;1.10;;;;;;;;;;5026282;28;20558;-68
2023/12/30 08:18:34;;;;;;;2.77;1.20;;;;;;;;;;5026403;28;20438;-69
2023/12/30 08:20:59;;;;;;;1.50;0.60;;;;;;;;;;5026909;28;20793;-69
2023/12/30 08:23:25;;;;;;;2.00;0.70;;;;;;;;;;5026083;28;20457;-70
2023/12/30 08:25:51;;;;;;;2.57;0.97;;;;;;;;;;5026667;28;20430;-70
2023/12/30 08:28:18;;;;;;;3.20;1.13;;;;;;;;;;5026648;28;20873;-72
2023/12/30 08:30:44;;;;;;;1.67;0.80;;;;;;;;;;5027467;28;20422;-68
2023/12/30 08:33:10;;;;;;;2.00;0.93;;;;;;;;;;5028011;28;20426;-69
2023/12/30 08:35:36;;;;;;;2.00;1.00;;;;;;;;;;5027543;28;20988;-69
2023/12/30 08:38:02;;;;;;;4.03;1.00;;;;;;;;;;5025740;28;20445;-68
2023/12/30 08:40:28;;;;;;;2.17;1.10;;;;;;;;;;5025973;28;20426;-68
2023/12/30 08:42:54;;;;;;;1.60;0.60;;;;;;;;;;5027140;28;20518;-69
2023/12/30 08:45:20;;;;;;;3.07;1.20;;;;;;;;;;5027048;28;20543;-68
2023/12/30 08:47:47;;;;;;;3.77;1.10;;;;;;;;;;5027782;28;20411;-68
2023/12/30 08:50:13;;;;;;;1.90;0.90;;;;;;;;;;5025177;28;20479;-69
2023/12/30 08:52:39;;;;;;;4.43;1.00;;;;;;;;;;5026075;28;20411;-70
2023/12/30 08:55:10;;;;;;;2.20;1.37;;;;;;;;;;5025495;28;20494;-69
2023/12/30 08:57:36;;;;;;;2.80;1.40;;;;;;;;;;5026871;28;20442;-69
2023/12/30 09:00:06;;;;;;;9.30;6.33;;;;;;;;;;5027407;28;20434;-69
2023/12/30 09:02:32;;;;;;;6.23;3.70;;;;;;;;;;5026821;28;20425;-69
2023/12/30 09:04:58;;;;;;;3.70;2.77;;;;;;;;;;5026246;28;20418;-70
2023/12/30 09:07:24;;;;;;;2.60;1.43;;;;;;;;;;5026464;28;20421;-69
2023/12/30 09:09:50;;;;;;;3.27;1.93;;;;;;;;;;5026819;28;20478;-70
2023/12/30 09:12:16;;;;;;;2.67;0.63;;;;;;;;;;5026786;28;20429;-69
2023/12/30 09:14:42;;;;;;;1.67;0.73;;;;;;;;;;5026462;28;20461;-68
2023/12/30 09:17:08;;;;;;;2.57;0.80;;;;;;;;;;5025643;28;20453;-68
2023/12/30 09:19:34;;;;;;;2.13;0.90;;;;;;;;;;5025424;28;20439;-69
2023/12/30 09:22:01;;;;;;;2.13;1.00;;;;;;;;;;5026464;28;20426;-69
2023/12/30 09:24:27;;;;;;;2.73;1.03;;;;;;;;;;5025625;28;20414;-70
2023/12/30 09:26:53;;;;;;;4.73;1.20;;;;;;;;;;5026392;28;20751;-69
2023/12/30 09:29:19;;;;;;;2.37;0.87;;;;;;;;;;5024989;28;20435;-69
2023/12/30 09:31:45;;;;;;;3.73;1.13;;;;;;;;;;5024433;28;20468;-68
2023/12/30 09:34:11;;;;;;;2.10;0.90;;;;;;;;;;5026816;28;20411;-68
2023/12/30 09:36:37;;;;;;;2.10;1.03;;;;;;;;;;5025630;28;20438;-68
2023/12/30 09:39:05;;;;;;;2.00;1.17;;;;;;;;;;5027457;28;20450;-69
2023/12/30 09:41:34;;;;;;;2.00;0.70;;;;;;;;;;5026911;28;20414;-70
2023/12/30 09:44:00;;;;;;;1.73;0.70;;;;;;;;;;5026161;28;20415;-70
2023/12/30 09:46:27;;;;;;;1.80;0.60;;;;;;;;;;5027044;28;20834;-69
2023/12/30 09:48:53;;;;;;;2.00;0.87;;;;;;;;;;5025463;28;20462;-69
2023/12/30 09:51:22;;;;;;;3.20;1.53;;;;;;;;;;5027487;28;20422;-69
2023/12/30 09:53:48;;;;;;;2.50;0.90;;;;;;;;;;5026509;28;20418;-69
2023/12/30 09:56:14;;;;;;;2.30;0.90;;;;;;;;;;5026240;28;20540;-69
2023/12/30 09:58:40;;;;;;;2.90;1.57;;;;;;;;;;5024970;28;20485;-69
2023/12/30 10:01:06;;;;;;;2.73;1.83;;;;;;;;;;5025839;28;20445;-70
2023/12/30 10:03:33;;;;;;;2.47;0.93;;;;;;;;;;5026696;28;20418;-69
2023/12/30 10:06:01;;;;;;;2.83;1.20;;;;;;;;;;5025684;28;20414;-69
2023/12/30 10:08:27;;;;;;;1.70;0.77;;;;;;;;;;5025469;28;20451;-68
2023/12/30 10:10:54;;;;;;;2.57;1.13;;;;;;;;;;5025868;28;20929;-69
2023/12/30 10:13:26;;;;;;;2.67;1.00;;;;;;;;;;5025663;28;20973;-71
2023/12/30 10:15:52;;;;;;;2.63;1.33;;;;;;;;;;5025910;28;20453;-70
2023/12/30 10:18:19;;;;;;;2.17;1.10;;;;;;;;;;5025471;28;20472;-71
2023/12/30 10:20:46;;;;;;;3.27;1.57;;;;;;;;;;5025308;28;20421;-68
2023/12/30 10:23:12;;;;;;;3.37;1.43;;;;;;;;;;5025405;28;20883;-69
2023/12/30 10:25:39;;;;;;;4.50;1.57;;;;;;;;;;5025241;28;20487;-69
2023/12/30 10:28:06;;;;;;;2.83;1.57;;;;;;;;;;5022543;28;20446;-69
2023/12/30 10:30:32;;;;;;;4.20;2.00;;;;;;;;;;5023871;28;20430;-68
2023/12/30 10:33:24;;;;;;;5.93;3.73;;;;;;;;;;5024584;28;20412;-68
2023/12/30 10:35:50;;;;;;;4.07;2.90;;;;;;;;;;5019626;28;20477;-70
2023/12/30 10:38:18;;;;;;;2.70;1.67;;;;;;;;;;5024524;28;20441;-67
2023/12/30 10:40:44;;;;;;;3.00;1.20;;;;;;;;;;5024608;28;20477;-68
2023/12/30 10:43:10;;;;;;;2.10;0.90;;;;;;;;;;5024520;28;20427;-70
2023/12/30 10:45:37;;;;;;;1.80;0.80;;;;;;;;;;5026191;28;20419;-68
2023/12/30 10:48:05;;;;;;;2.97;1.37;;;;;;;;;;5025434;28;20445;-70
2023/12/30 10:50:31;;;;;;;3.20;1.47;;;;;;;;;;5024526;28;20422;-69
2023/12/30 10:53:02;;;;;;;1.70;0.80;;;;;;;;;;5024748;28;20473;-68
2023/12/30 10:55:35;;;;;;;3.07;1.13;;;;;;;;;;5024374;28;20455;-68
2023/12/30 10:58:07;;;;;;;2.43;1.10;;;;;;;;;;5023685;28;20443;-70
2023/12/30 11:00:35;;;;;;;1.90;0.80;;;;;;;;;;5024351;28;20411;-70
2023/12/30 11:03:02;;;;;;;6.60;1.10;;;;;;;;;;5024055;28;20621;-69
2023/12/30 11:05:30;;;;;;;2.40;1.30;;;;;;;;;;5023135;28;20458;-68
2023/12/30 11:07:58;;;;;;;1.70;0.60;;;;;;;;;;5024287;28;20411;-69
2023/12/30 11:10:27;;;;;;;3.27;0.90;;;;;;;;;;5022838;28;20438;-70
2023/12/30 11:12:53;;;;;;;2.57;0.90;;;;;;;;;;5023436;28;20427;-69
2023/12/30 11:15:26;;;;;;;1.80;0.80;;;;;;;;;;5027239;28;20469;-68
2023/12/30 11:17:52;;;;;;;1.50;0.60;;;;;;;;;;5025968;28;20425;-70
2023/12/30 11:20:25;;;;;;;2.10;0.83;;;;;;;;;;5026185;28;20415;-69
2023/12/30 11:22:52;;;;;;;2.73;1.07;;;;;;;;;;5027307;28;20776;-68
2023/12/30 11:25:19;;;;;;;1.90;0.90;;;;;;;;;;5027615;28;20438;-69
2023/12/30 11:27:53;;;;;;;2.40;1.40;;;;;;;;;;5028133;28;20484;-70
2023/12/30 11:30:24;;;;;;;2.20;0.97;;;;;;;;;;5027011;28;20983;-69
2023/12/30 11:32:51;;;;;;;2.03;1.03;;;;;;;;;;5027771;28;20411;-68
2023/12/30 11:35:17;;;;;;;2.73;1.10;;;;;;;;;;5027610;28;20458;-67
2023/12/30 11:37:44;;;;;;;3.20;1.50;;;;;;;;;;5027496;28;20413;-69
2023/12/30 11:40:12;;;;;;;1.83;0.80;;;;;;;;;;5026913;28;20421;-69
2023/12/30 11:42:38;;;;;;;3.20;0.73;;;;;;;;;;5027995;28;20415;-69
2023/12/30 11:45:05;;;;;;;2.50;1.10;;;;;;;;;;5027013;28;20413;-68
2023/12/30 11:47:31;;;;;;;1.97;0.77;;;;;;;;;;5026484;28;20425;-68
2023/12/30 11:50:05;;;;;;;3.80;1.40;;;;;;;;;;5026326;28;20427;-69
2023/12/30 11:52:31;;;;;;;6.87;2.67;;;;;;;;;;5026097;28;20422;-69
2023/12/30 11:54:57;;;;;;;3.00;1.40;;;;;;;;;;5026395;28;20458;-69
2023/12/30 11:57:23;;;;;;;2.13;0.87;;;;;;;;;;5027182;28;20419;-69
2023/12/30 11:59:50;;;;;;;3.87;1.27;;;;;;;;;;5026831;28;20958;-70
2023/12/30 12:02:18;;;;;;;1.73;0.77;;;;;;;;;;5026771;28;20411;-69
2023/12/30 12:04:44;;;;;;;2.40;1.00;;;;;;;;;;5025750;28;20414;-68
2023/12/30 12:07:11;;;;;;;5.93;0.77;;;;;;;;;;5025218;28;20426;-69
2023/12/30 12:09:40;;;;;;;1.77;0.77;;;;;;;;;;5023858;28;20451;-69
2023/12/30 12:12:06;;;;;;;2.40;1.40;;;;;;;;;;5023035;28;20419;-69
2023/12/30 12:14:32;;;;;;;1.67;0.80;;;;;;;;;;5022053;28;20805;-70
2023/12/30 12:16:58;;;;;;;2.83;1.00;;;;;;;;;;5023933;28;20474;-69
2023/12/30 12:19:26;;;;;;;2.50;1.17;;;;;;;;;;5024248;28;20435;-69
2023/12/30 12:21:52;;;;;;;2.10;0.90;;;;;;;;;;5023626;28;20481;-69
2023/12/30 12:24:18;;;;;;;1.97;1.00;;;;;;;;;;5023647;28;20465;-69
2023/12/30 12:26:44;;;;;;;2.00;0.90;;;;;;;;;;5024885;28;20419;-70
2023/12/30 12:29:11;;;;;;;2.17;0.90;;;;;;;;;;5024923;28;20454;-69
2023/12/30 12:31:37;;;;;;;1.90;1.10;;;;;;;;;;5025628;28;20410;-70
2023/12/30 12:34:19;;;;;;;1.90;0.90;;;;;;;;;;5026106;28;20438;-70
2023/12/30 12:36:45;;;;;;;5.00;0.90;;;;;;;;;;5023281;28;20923;-68
2023/12/30 12:39:11;;;;;;;2.20;0.80;;;;;;;;;;5024522;28;20434;-69
2023/12/30 12:41:38;;;;;;;1.70;0.80;;;;;;;;;;5022548;28;20416;-69
2023/12/30 12:44:04;;;;;;;3.30;1.23;;;;;;;;;;5024287;28;20412;-68
2023/12/30 12:46:30;;;;;;;1.80;0.87;;;;;;;;;;5023581;28;20469;-69
2023/12/30 12:48:57;;;;;;;1.90;0.80;;;;;;;;;;5023584;28;20427;-68
2023/12/30 12:51:23;;;;;;;1.83;1.00;;;;;;;;;;5023506;28;20417;-69
2023/12/30 12:53:49;;;;;;;3.43;1.10;;;;;;;;;;5024610;28;20415;-69
2023/12/30 12:56:15;;;;;;;2.40;0.90;;;;;;;;;;5023429;28;20457;-69
2023/12/30 12:58:41;;;;;;;1.80;1.00;;;;;;;;;;5024897;28;21017;-70
2023/12/30 13:01:08;;;;;;;1.77;0.80;;;;;;;;;;5024513;28;20407;-69
2023/12/30 13:03:34;;;;;;;3.10;1.13;;;;;;;;;;5024625;28;20414;-69
2023/12/30 13:06:10;;;;;;;1.80;0.97;;;;;;;;;;5023449;28;20436;-69
2023/12/30 13:08:36;;;;;;;1.70;0.80;;;;;;;;;;5046971;23;20585;-70
2023/12/30 13:11:05;;;;;;;1.90;1.00;;;;;;;;;;5016212;28;20406;-71
2023/12/30 13:13:31;;;;;;;2.27;1.17;;;;;;;;;;5013070;28;20407;-71
2023/12/30 13:16:00;;;;;;;1.60;0.70;;;;;;;;;;5012032;28;20565;-72
2023/12/30 13:18:29;;;;;;;2.80;1.50;;;;;;;;;;5013502;28;20503;-69
2023/12/30 13:20:55;;;;;;;2.00;1.13;;;;;;;;;;5012983;28;20407;-70
2023/12/30 13:23:21;;;;;;;3.17;1.30;;;;;;;;;;5011944;28;20465;-70
2023/12/30 13:25:58;;;;;;;3.50;1.10;;;;;;;;;;5012944;28;20795;-72
2023/12/30 13:28:24;;;;;;;2.83;1.20;;;;;;;;;;5011777;28;20461;-70
2023/12/30 13:30:51;;;;;;;2.43;1.20;;;;;;;;;;5011456;28;20488;-72
2023/12/30 13:33:20;;;;;;;2.20;0.97;;;;;;;;;;5011932;28;20457;-72
2023/12/30 13:35:49;;;;;;;2.00;1.00;;;;;;;;;;5011246;28;20466;-71
2023/12/30 13:38:16;;;;;;;1.90;1.13;;;;;;;;;;5011262;28;20481;-70
2023/12/30 13:40:52;;;;;;;2.43;0.90;;;;;;;;;;5011466;28;20856;-71
2023/12/30 13:43:26;;;;;;;1.87;1.10;;;;;;;;;;5011626;28;20847;-72
2023/12/30 13:46:00;;;;;;;1.80;0.80;;;;;;;;;;5011565;28;20432;-70
2023/12/30 13:51:07;;;;;;;2.80;1.63;;;;;;;;;;5012578;28;20943;-70
2023/12/30 13:53:33;;;;;;;1.70;0.87;;;;;;;;;;5011665;28;20451;-70
2023/12/30 13:56:03;;;;;;;2.10;1.00;;;;;;;;;;5012815;28;20824;-70
2023/12/30 13:58:29;;;;;;;2.50;1.37;;;;;;;;;;5011099;28;20699;-70
2023/12/30 14:00:56;;;;;;;2.77;1.00;;;;;;;;;;5011155;28;20413;-72
2023/12/30 14:03:26;;;;;;;2.57;0.80;;;;;;;;;;5011287;28;20414;-71
2023/12/30 14:05:53;;;;;;;2.50;1.97;;;;;;;;;;5011348;28;20510;-70
2023/12/30 14:08:42;;;;;;;2.10;1.20;;;;;;;;;;5012728;28;20510;-71
2023/12/30 14:13:53;;;;;;;3.90;1.20;;;;;;;;;;5013528;28;20448;-72
2023/12/30 14:16:25;;;;;;;3.13;1.53;;;;;;;;;;5013483;28;20459;-71
2023/12/30 14:18:54;;;;;;;3.27;1.60;;;;;;;;;;5012215;28;20496;-70
2023/12/30 14:21:21;;;;;;;2.20;1.10;;;;;;;;;;5011966;28;20430;-69
2023/12/30 14:23:50;;;;;;;2.47;1.20;;;;;;;;;;5013034;28;20739;-70
2023/12/30 14:26:24;;;;;;;2.50;1.03;;;;;;;;;;5012928;28;20432;-70
2023/12/30 14:28:50;;;;;;;1.90;1.00;;;;;;;;;;5012500;28;20576;-72
2023/12/30 14:31:17;;;;;;;1.93;0.90;;;;;;;;;;5012231;28;20450;-71
2023/12/30 14:33:53;;;;;;;3.10;1.30;;;;;;;;;;5011178;28;20488;-71
2023/12/30 14:36:19;;;;;;;2.33;1.10;;;;;;;;;;5012082;28;20459;-73
2023/12/30 14:38:46;;;;;;;5.33;3.13;;;;;;;;;;5010802;28;20449;-72
2023/12/30 14:41:12;;;;;;;27.70;15.73;;;;;;;;;;5012158;28;20450;-71
2023/12/30 14:43:49;;;;;;;19.03;11.60;;;;;;;;;;5011926;28;20967;-71
2023/12/30 14:46:15;;;;;;;7.80;4.67;;;;;;;;;;5010866;28;20963;-71